KCUB/CUB METAR and TAF weather

Enter ICAO airport designator
Station Type Date Time Source
KCUB METAR 2018/10/16 20:53 UTC NOAA

KCUB 162053Z AUTO 25003KT 10SM FEW080 30/21 A3005 RMK AO2 SLP173 T03000206 56011


Station Type Date Time Source
KCUB Decoded METAR 2018/10/16 20:53 UTC NOAA

OWENS DOWNTOWN AIRPORT, SC, United States (KCUB) 33-58N 081-00W 56M
Oct 16, 2018 - 04:53 PM EDT / 2018.10.16 2053 UTC
Wind: from the WSW (250 degrees) at 3 MPH (3 KT):0
Visibility: 10 mile(s):0
Sky conditions: mostly clear
Temperature: 86.0 F (30.0 C)
Dew Point: 69.1 F (20.6 C)
Relative Humidity: 57%
Pressure (altimeter): 30.05 in. Hg (1017 hPa)
Pressure tendency: 0.03 inches (1.1 hPa) lower than three hours ago
ob: KCUB 162053Z AUTO 25003KT 10SM FEW080 30/21 A3005 RMK AO2 SLP173 T03000206 56011
cycle: 21

Station Type Date Time Source
KCUB TAF 2018/10/16 18:40 UTC NOAA

TAF KCUB 161737Z 1618/1718 VRB05KT P6SM VCSH BKN040
FM170000 VRB04KT P6SM VCSH SCT030
FM170600 25003KT P6SM OVC100
FM170900 VRB03KT 5SM BR OVC015
FM171500 30005KT P6SM BKN050


Example: see airport list